Weather reports worldwide

Advertisment
Monte Scuro, Italy (16344): temperature & dewpoint: 20.05.2019 00:00:00 - 26.05.2019 00:00:00 (CEST)Monte Scuro, Italy (16344): wind speed: 20.05.2019 00:00:00 - 26.05.2019 00:00:00 (CEST)Monte Scuro, Italy (16344): wind direction: 20.05.2019 00:00:00 - 26.05.2019 00:00:00 (CEST)Monte Scuro, Italy (16344): visibility: 20.05.2019 00:00:00 - 26.05.2019 00:00:00 (CEST)Monte Scuro, Italy (16344): sunshine duration: 20.05.2019 00:00:00 - 26.05.2019 00:00:00 (CEST)
Date & Time tt [°C] td [°C] ff [km/h] ff [kn] dd vv [km] sd [min]
26.05.2019 00:00:00 10,0 10,0 11 6 W 10 -
25.05.2019 23:00:00 11,0 11,0 9 5 W 10 -
25.05.2019 22:00:00 10,8 10,8 9 5 W 10 -
25.05.2019 21:00:00 11,0 11,0 9 5 W 10 -
25.05.2019 20:00:00 12,0 11,2 9 5 W 15 -
25.05.2019 19:00:00 12,0 11,2 9 5 W 15 0
25.05.2019 18:00:00 12,0 12,0 18 10 W 15 0
25.05.2019 17:00:00 13,8 10,0 11 6 W 20 0
25.05.2019 16:00:00 13,8 8,4 9 5 W 20 0
25.05.2019 15:00:00 13,8 4,9 15 8 W 25 0
25.05.2019 14:00:00 14,0 5,1 11 6 W 25 -
25.05.2019 13:00:00 13,2 7,9 18 10 W 25 30
25.05.2019 12:00:00 13,2 4,4 22 12 W 25 0
25.05.2019 11:00:00 13,0 -1,0 18 10 W 25 60
25.05.2019 10:00:00 13,0 -1,3 11 6 W 25 60
25.05.2019 09:00:00 13,0 -4,6 11 6 W 25 60
25.05.2019 08:00:00 14,0 -1,6 8 4 W 20 48
25.05.2019 07:00:00 10,6 2,7 8 4 W 25 -
25.05.2019 06:00:00 9,6 2,9 9 5 W 20 -
25.05.2019 05:00:00 8,6 3,0 0 0 W 15 -
25.05.2019 04:00:00 9,0 1,2 4 2 W 15 -
25.05.2019 03:00:00 9,0 1,2 4 2 W 15 -
25.05.2019 02:00:00 9,0 4,6 5 3 W 15 -
25.05.2019 01:00:00 9,0 5,4 9 5 W 15 -
25.05.2019 00:00:00 9,0 5,8 11 6 W 15 -
24.05.2019 23:00:00 9,2 5,6 11 6 W 15 -
24.05.2019 22:00:00 9,2 5,0 11 6 W 15 -
24.05.2019 21:00:00 9,6 5,8 11 6 W 15 -
24.05.2019 20:00:00 11,0 8,9 13 7 W 25 36
24.05.2019 19:00:00 11,6 11,0 13 7 SW 25 60
24.05.2019 18:00:00 12,6 10,7 11 6 SW 25 60
24.05.2019 17:00:00 12,8 10,2 16 9 W 25 60
24.05.2019 16:00:00 13,0 10,9 15 8 W 20 60
24.05.2019 15:00:00 13,4 9,7 8 4 W 20 48
24.05.2019 14:00:00 12,8 10,7 9 5 W 20 24
24.05.2019 13:00:00 12,8 10,2 4 2 W 25 54
24.05.2019 12:00:00 12,2 10,3 9 5 W 15 60
24.05.2019 11:00:00 11,2 9,3 5 3 W 20 60
24.05.2019 10:00:00 10,0 7,1 0 0 N 20 60
24.05.2019 09:00:00 10,0 5,8 0 0 N 20 60
24.05.2019 08:00:00 10,0 6,4 0 0 N 20 60
24.05.2019 07:00:00 9,0 4,8 0 0 N 20 -
24.05.2019 06:00:00 6,4 5,7 0 0 N 10 -
24.05.2019 05:00:00 6,8 5,6 0 0 N 10 -
24.05.2019 04:00:00 7,2 6,1 0 0 N 10 -
24.05.2019 03:00:00 7,0 4,5 0 0 N 10 -
24.05.2019 02:00:00 7,2 6,5 0 0 N 10 -
24.05.2019 01:00:00 7,2 6,8 0 0 N 10 -
24.05.2019 00:00:00 7,2 6,5 0 0 N 10 -
23.05.2019 23:00:00 7,4 6,7 0 0 N 10 -
23.05.2019 22:00:00 7,4 5,1 0 0 N 10 -
23.05.2019 21:00:00 7,6 5,2 18 10 W 10 -
23.05.2019 20:00:00 8,0 8,0 18 10 W - -
23.05.2019 19:00:00 8,0 8,0 18 10 W - -
23.05.2019 18:00:00 9,4 9,1 18 10 W 10 12
23.05.2019 17:00:00 11,0 9,7 18 10 W 10 30
23.05.2019 16:00:00 11,0 9,7 18 10 W 10 24
23.05.2019 15:00:00 11,2 10,0 0 0 N 10 0
23.05.2019 14:00:00 11,0 9,8 0 0 N 10 0
23.05.2019 13:00:00 11,0 10,2 0 0 N 10 12
23.05.2019 12:00:00 10,6 8,0 18 10 W 10 24
23.05.2019 11:00:00 10,0 7,3 18 10 W 15 48
23.05.2019 10:00:00 9,4 6,0 16 9 W 15 60
23.05.2019 09:00:00 9,0 5,2 21 11 W 15 54
23.05.2019 08:00:00 9,0 4,6 16 9 W 15 36
23.05.2019 07:00:00 8,4 2,6 21 11 W 15 -
23.05.2019 06:00:00 5,0 0,9 16 9 W 10 -
23.05.2019 05:00:00 6,0 -0,5 15 8 W 10 -
23.05.2019 04:00:00 6,0 2,3 15 8 W 10 -
23.05.2019 03:00:00 6,4 0,7 22 12 WNW 10 -
23.05.2019 02:00:00 6,4 0,5 18 10 WSW 10 -
23.05.2019 01:00:00 6,4 1,9 24 13 W 10 -
23.05.2019 00:00:00 7,0 6,0 22 12 W 10 -
22.05.2019 23:00:00 7,2 4,9 18 10 W 10 -
22.05.2019 22:00:00 7,4 4,5 26 14 W 10 -
22.05.2019 21:00:00 7,4 5,1 22 12 W 10 -
22.05.2019 20:00:00 8,0 6,1 28 15 W 10 60
22.05.2019 19:00:00 10,4 6,5 21 11 W 10 60
22.05.2019 18:00:00 10,4 5,8 29 16 SW 10 60
22.05.2019 17:00:00 11,2 4,9 24 13 WSW 20 60
22.05.2019 16:00:00 11,0 4,7 21 11 W 25 60
22.05.2019 15:00:00 11,0 4,2 21 11 WSW 30 60
22.05.2019 14:00:00 11,4 3,4 28 15 W 30 60
22.05.2019 13:00:00 10,8 4,9 24 13 WSW 25 60
22.05.2019 12:00:00 11,0 2,8 26 14 WSW 20 60
22.05.2019 11:00:00 10,4 1,8 22 12 W 20 60
22.05.2019 10:00:00 9,0 2,3 18 10 WSW 25 60
22.05.2019 09:00:00 9,0 0,4 13 7 WSW 25 60
22.05.2019 08:00:00 9,0 -0,3 15 8 WSW 25 60
22.05.2019 07:00:00 8,2 -1,6 22 12 WSW 25 30
22.05.2019 06:00:00 6,0 -2,4 34 18 WSW 25 -
22.05.2019 05:00:00 6,0 -3,6 46 25 WSW 10 -
22.05.2019 04:00:00 7,0 -0,7 41 22 WSW 10 -
22.05.2019 03:00:00 5,0 -1,0 41 22 W 10 -
22.05.2019 02:00:00 5,2 1,7 34 18 WSW 10 -
22.05.2019 01:00:00 5,2 4,5 31 17 WSW 10 -
22.05.2019 00:00:00 6,0 3,7 31 17 WSW 10 -
21.05.2019 23:00:00 5,8 2,6 28 15 W 10 -
21.05.2019 22:00:00 5,8 3,0 18 10 WSW 10 -
21.05.2019 21:00:00 5,8 4,3 24 13 WSW 10 -
21.05.2019 20:00:00 6,4 4,9 28 15 WSW 25 0
21.05.2019 19:00:00 7,0 5,5 29 16 WSW 20 48
21.05.2019 18:00:00 7,0 6,3 18 10 W 15 30
21.05.2019 17:00:00 7,0 6,3 22 12 WSW - 0
21.05.2019 16:00:00 7,0 6,3 22 12 W - 0
21.05.2019 15:00:00 6,8 6,1 18 10 W - 0
21.05.2019 14:00:00 6,4 5,7 22 12 W - 0
21.05.2019 13:00:00 6,4 5,7 13 7 W - 0
21.05.2019 12:00:00 7,0 6,3 18 10 W - 0
21.05.2019 11:00:00 7,0 6,2 18 10 W - 0
21.05.2019 10:00:00 6,8 6,4 18 10 W - 0
21.05.2019 09:00:00 5,4 5,0 15 8 W - 0
21.05.2019 08:00:00 4,8 4,2 18 10 W - 0
21.05.2019 07:00:00 4,4 3,8 13 7 W - -
21.05.2019 06:00:00 4,4 4,0 11 6 WSW - -
21.05.2019 05:00:00 4,0 3,4 18 10 WSW - -
21.05.2019 04:00:00 4,4 4,0 16 9 WSW - -
21.05.2019 03:00:00 4,4 4,0 28 15 WSW - -
21.05.2019 02:00:00 4,6 4,2 22 12 W - -
21.05.2019 01:00:00 4,6 4,3 35 19 WSW - -
21.05.2019 00:00:00 4,2 3,9 24 13 WSW - -
20.05.2019 23:00:00 4,4 4,3 34 18 W - -
20.05.2019 22:00:00 4,4 4,1 34 18 WSW 15 -
20.05.2019 21:00:00 5,0 4,7 31 17 WSW 15 -
20.05.2019 20:00:00 5,4 5,1 11 6 WSW 15 0
20.05.2019 19:00:00 7,8 5,4 24 13 WSW 20 60
20.05.2019 18:00:00 8,0 5,5 24 13 W 20 60
20.05.2019 17:00:00 9,0 6,1 21 11 SW 15 60
20.05.2019 16:00:00 8,4 6,2 13 7 WSW 15 48
20.05.2019 15:00:00 7,6 6,4 13 7 SW 15 18
20.05.2019 14:00:00 7,0 6,0 11 6 WSW 15 12
20.05.2019 13:00:00 6,6 6,2 15 8 WSW 15 0
20.05.2019 12:00:00 6,2 6,2 16 9 WSW - 0
20.05.2019 11:00:00 6,2 5,8 18 10 W - 0
20.05.2019 10:00:00 5,2 5,2 13 7 W - 0
20.05.2019 09:00:00 4,6 4,6 11 6 W - 0
20.05.2019 08:00:00 4,0 4,0 13 7 W - 0
20.05.2019 07:00:00 4,0 4,0 13 7 W - -
20.05.2019 06:00:00 4,0 4,0 15 8 W 10 -
20.05.2019 05:00:00 4,0 3,7 15 8 W 10 -
20.05.2019 04:00:00 4,0 4,0 15 8 W - -
20.05.2019 03:00:00 4,0 4,0 13 7 WSW - -
20.05.2019 02:00:00 4,4 4,4 13 7 WSW - -
20.05.2019 01:00:00 4,6 4,6 9 5 W - -
20.05.2019 00:00:00 5,0 5,0 8 4 W - -

tt = temperature
td = dewpoint
ff = wind speed
dd = wind direction
vv = visibility
sd = sunshine duration

Next stations